sensor_id;sensor_type;location;lat;lon;timestamp;pressure;altitude;pressure_sealevel;temperature;humidity
38616;BME280;24370;51.986;4.666;2023-09-19T00:00:42;100762.03;;;23.36;46.09
38616;BME280;24370;51.986;4.666;2023-09-19T00:03:09;100771.28;;;23.16;45.22
38616;BME280;24370;51.986;4.666;2023-09-19T00:05:36;100783.16;;;22.08;46.91
38616;BME280;24370;51.986;4.666;2023-09-19T00:08:02;100779.72;;;22.22;45.29
38616;BME280;24370;51.986;4.666;2023-09-19T00:10:32;100780.53;;;23.79;44.03
38616;BME280;24370;51.986;4.666;2023-09-19T00:13:01;100783.88;;;23.14;43.90
38616;BME280;24370;51.986;4.666;2023-09-19T00:15:31;100786.50;;;22.42;45.92
38616;BME280;24370;51.986;4.666;2023-09-19T00:18:00;100789.31;;;23.40;44.23
38616;BME280;24370;51.986;4.666;2023-09-19T00:20:26;100792.53;;;23.17;45.03
38616;BME280;24370;51.986;4.666;2023-09-19T00:22:51;100793.22;;;23.48;44.08
38616;BME280;24370;51.986;4.666;2023-09-19T00:25:17;100793.31;;;24.01;43.10
38616;BME280;24370;51.986;4.666;2023-09-19T00:27:43;100786.66;;;23.40;44.25
38616;BME280;24370;51.986;4.666;2023-09-19T00:30:11;100792.34;;;22.18;44.63
38616;BME280;24370;51.986;4.666;2023-09-19T00:32:41;100789.31;;;23.12;43.17
38616;BME280;24370;51.986;4.666;2023-09-19T00:35:07;100796.91;;;22.61;44.40
38616;BME280;24370;51.986;4.666;2023-09-19T00:37:36;100787.28;;;22.58;43.78
38616;BME280;24370;51.986;4.666;2023-09-19T00:40:03;100785.13;;;23.50;42.63
38616;BME280;24370;51.986;4.666;2023-09-19T00:42:30;100793.50;;;21.98;44.99
38616;BME280;24370;51.986;4.666;2023-09-19T00:44:55;100795.94;;;22.76;43.79
38616;BME280;24370;51.986;4.666;2023-09-19T00:47:21;100794.81;;;23.24;43.22
38616;BME280;24370;51.986;4.666;2023-09-19T00:49:46;100799.38;;;22.49;44.79
38616;BME280;24370;51.986;4.666;2023-09-19T00:52:18;100800.78;;;22.98;43.33
38616;BME280;24370;51.986;4.666;2023-09-19T00:54:48;100799.09;;;22.24;44.55
38616;BME280;24370;51.986;4.666;2023-09-19T00:57:14;100805.44;;;22.51;43.70
38616;BME280;24370;51.986;4.666;2023-09-19T00:59:44;100808.81;;;21.14;46.00
38616;BME280;24370;51.986;4.666;2023-09-19T01:02:10;100811.00;;;22.02;45.02
38616;BME280;24370;51.986;4.666;2023-09-19T01:04:40;100811.25;;;21.67;46.21
38616;BME280;24370;51.986;4.666;2023-09-19T01:07:06;100815.25;;;21.26;46.65
38616;BME280;24370;51.986;4.666;2023-09-19T01:09:33;100811.06;;;22.16;45.81
38616;BME280;24370;51.986;4.666;2023-09-19T01:12:02;100806.69;;;21.69;45.81
38616;BME280;24370;51.986;4.666;2023-09-19T01:14:41;100812.38;;;21.63;45.92
38616;BME280;24370;51.986;4.666;2023-09-19T01:17:17;100813.84;;;22.74;44.27
38616;BME280;24370;51.986;4.666;2023-09-19T01:20:00;100818.81;;;21.59;46.37
38616;BME280;24370;51.986;4.666;2023-09-19T01:22:48;100806.25;;;21.77;45.65
38616;BME280;24370;51.986;4.666;2023-09-19T01:28:34;100812.03;;;22.75;45.48
38616;BME280;24370;51.986;4.666;2023-09-19T01:31:04;100809.84;;;21.44;47.02
38616;BME280;24370;51.986;4.666;2023-09-19T01:33:56;100810.84;;;22.05;46.23
38616;BME280;24370;51.986;4.666;2023-09-19T01:36:24;100818.34;;;21.82;47.22
38616;BME280;24370;51.986;4.666;2023-09-19T01:38:51;100820.53;;;22.36;46.50
38616;BME280;24370;51.986;4.666;2023-09-19T01:41:25;100819.66;;;22.81;45.45
38616;BME280;24370;51.986;4.666;2023-09-19T01:43:51;100816.09;;;21.91;47.39
38616;BME280;24370;51.986;4.666;2023-09-19T01:46:21;100820.88;;;22.46;46.26
38616;BME280;24370;51.986;4.666;2023-09-19T01:51:56;100828.84;;;22.46;46.51
38616;BME280;24370;51.986;4.666;2023-09-19T01:54:41;100827.72;;;22.50;46.76
38616;BME280;24370;51.986;4.666;2023-09-19T01:57:29;100818.53;;;21.79;47.84
38616;BME280;24370;51.986;4.666;2023-09-19T02:00:15;100816.56;;;21.67;47.56
38616;BME280;24370;51.986;4.666;2023-09-19T02:02:47;100828.19;;;21.16;48.89
38616;BME280;24370;51.986;4.666;2023-09-19T02:05:13;100824.69;;;22.71;45.69
38616;BME280;24370;51.986;4.666;2023-09-19T02:07:47;100832.81;;;20.62;49.58
38616;BME280;24370;51.986;4.666;2023-09-19T02:10:13;100822.13;;;21.78;47.59
38616;BME280;24370;51.986;4.666;2023-09-19T02:12:39;100830.66;;;21.53;47.97
38616;BME280;24370;51.986;4.666;2023-09-19T02:15:04;100821.31;;;22.08;47.00
38616;BME280;24370;51.986;4.666;2023-09-19T02:17:32;100835.88;;;21.05;47.92
38616;BME280;24370;51.986;4.666;2023-09-19T02:19:58;100824.53;;;21.67;47.39
38616;BME280;24370;51.986;4.666;2023-09-19T02:22:24;100815.69;;;21.82;46.66
38616;BME280;24370;51.986;4.666;2023-09-19T02:24:50;100825.38;;;21.51;47.35
38616;BME280;24370;51.986;4.666;2023-09-19T02:29:42;100832.72;;;21.64;46.84
38616;BME280;24370;51.986;4.666;2023-09-19T02:32:08;100822.91;;;21.64;46.60
38616;BME280;24370;51.986;4.666;2023-09-19T02:34:36;100827.72;;;22.50;45.44
38616;BME280;24370;51.986;4.666;2023-09-19T02:37:03;100825.97;;;21.89;46.51
38616;BME280;24370;51.986;4.666;2023-09-19T02:39:30;100830.75;;;21.98;45.99
38616;BME280;24370;51.986;4.666;2023-09-19T02:41:56;100836.16;;;22.57;45.46
38616;BME280;24370;51.986;4.666;2023-09-19T02:44:22;100832.00;;;21.76;46.41
38616;BME280;24370;51.986;4.666;2023-09-19T02:46:49;100833.09;;;21.24;48.76
38616;BME280;24370;51.986;4.666;2023-09-19T02:49:14;100836.06;;;21.98;46.82
38616;BME280;24370;51.986;4.666;2023-09-19T02:51:39;100835.09;;;21.52;48.17
38616;BME280;24370;51.986;4.666;2023-09-19T02:54:05;100835.16;;;20.86;49.61
38616;BME280;24370;51.986;4.666;2023-09-19T02:56:30;100814.16;;;21.62;48.12
38616;BME280;24370;51.986;4.666;2023-09-19T02:58:57;100826.75;;;22.21;47.32
38616;BME280;24370;51.986;4.666;2023-09-19T03:01:23;100833.25;;;20.88;50.29
38616;BME280;24370;51.986;4.666;2023-09-19T03:03:48;100829.41;;;21.91;48.80
38616;BME280;24370;51.986;4.666;2023-09-19T03:06:14;100829.88;;;21.67;48.94
38616;BME280;24370;51.986;4.666;2023-09-19T03:08:40;100837.19;;;20.45;52.04
38616;BME280;24370;51.986;4.666;2023-09-19T03:11:07;100827.44;;;21.62;49.63
38616;BME280;24370;51.986;4.666;2023-09-19T03:13:35;100835.00;;;20.71;51.77
38616;BME280;24370;51.986;4.666;2023-09-19T03:16:03;100830.97;;;21.31;50.66
38616;BME280;24370;51.986;4.666;2023-09-19T03:18:31;100844.97;;;21.01;51.30
38616;BME280;24370;51.986;4.666;2023-09-19T03:20:57;100852.44;;;21.10;51.85
38616;BME280;24370;51.986;4.666;2023-09-19T03:23:25;100841.19;;;21.21;51.70
38616;BME280;24370;51.986;4.666;2023-09-19T03:25:51;100844.50;;;20.93;51.78
38616;BME280;24370;51.986;4.666;2023-09-19T03:28:17;100832.16;;;21.41;51.50
38616;BME280;24370;51.986;4.666;2023-09-19T03:30:44;100837.44;;;21.09;51.21
38616;BME280;24370;51.986;4.666;2023-09-19T03:33:09;100844.31;;;21.13;51.34
38616;BME280;24370;51.986;4.666;2023-09-19T03:35:37;100834.44;;;20.47;52.74
38616;BME280;24370;51.986;4.666;2023-09-19T03:38:03;100837.75;;;20.70;53.08
38616;BME280;24370;51.986;4.666;2023-09-19T03:40:29;100834.34;;;21.17;50.67
38616;BME280;24370;51.986;4.666;2023-09-19T03:42:55;100828.16;;;20.14;53.99
38616;BME280;24370;51.986;4.666;2023-09-19T03:45:21;100827.91;;;20.37;54.08
38616;BME280;24370;51.986;4.666;2023-09-19T03:47:46;100828.75;;;20.90;52.43
38616;BME280;24370;51.986;4.666;2023-09-19T03:50:15;100840.31;;;20.89;51.94
38616;BME280;24370;51.986;4.666;2023-09-19T03:52:45;100849.69;;;20.78;51.98
38616;BME280;24370;51.986;4.666;2023-09-19T03:55:10;100841.88;;;20.75;51.91
38616;BME280;24370;51.986;4.666;2023-09-19T03:57:36;100846.88;;;19.56;55.43
38616;BME280;24370;51.986;4.666;2023-09-19T04:00:02;100847.03;;;20.26;53.67
38616;BME280;24370;51.986;4.666;2023-09-19T04:02:29;100857.13;;;21.05;51.91
38616;BME280;24370;51.986;4.666;2023-09-19T04:04:58;100857.34;;;20.32;53.33
38616;BME280;24370;51.986;4.666;2023-09-19T04:07:23;100847.19;;;21.74;50.14
38616;BME280;24370;51.986;4.666;2023-09-19T04:09:51;100859.69;;;20.56;52.64
38616;BME280;24370;51.986;4.666;2023-09-19T04:12:19;100871.16;;;20.21;53.52
38616;BME280;24370;51.986;4.666;2023-09-19T04:14:44;100873.56;;;20.26;54.08
38616;BME280;24370;51.986;4.666;2023-09-19T04:17:10;100879.91;;;20.58;53.91
38616;BME280;24370;51.986;4.666;2023-09-19T04:19:36;100876.09;;;19.73;56.56
38616;BME280;24370;51.986;4.666;2023-09-19T04:22:01;100879.81;;;20.25;56.02
38616;BME280;24370;51.986;4.666;2023-09-19T04:24:28;100882.41;;;19.90;56.89
38616;BME280;24370;51.986;4.666;2023-09-19T04:26:53;100886.22;;;20.91;53.76
38616;BME280;24370;51.986;4.666;2023-09-19T04:29:18;100891.38;;;20.41;55.79
38616;BME280;24370;51.986;4.666;2023-09-19T04:31:45;100887.47;;;19.75;58.35
38616;BME280;24370;51.986;4.666;2023-09-19T04:34:11;100887.31;;;20.87;55.37
38616;BME280;24370;51.986;4.666;2023-09-19T04:36:41;100881.97;;;20.16;57.52
38616;BME280;24370;51.986;4.666;2023-09-19T04:39:07;100881.81;;;21.07;54.07
38616;BME280;24370;51.986;4.666;2023-09-19T04:41:33;100874.78;;;20.01;56.27
38616;BME280;24370;51.986;4.666;2023-09-19T04:43:59;100882.50;;;20.06;58.79
38616;BME280;24370;51.986;4.666;2023-09-19T04:46:24;100891.38;;;20.59;56.94
38616;BME280;24370;51.986;4.666;2023-09-19T04:48:50;100890.00;;;20.51;56.38
38616;BME280;24370;51.986;4.666;2023-09-19T04:51:16;100892.56;;;20.88;55.51
38616;BME280;24370;51.986;4.666;2023-09-19T04:53:43;100890.53;;;20.58;56.20
38616;BME280;24370;51.986;4.666;2023-09-19T04:56:09;100893.59;;;20.86;55.10
38616;BME280;24370;51.986;4.666;2023-09-19T04:58:34;100885.66;;;20.14;58.48
38616;BME280;24370;51.986;4.666;2023-09-19T05:00:59;100884.72;;;20.15;57.52
38616;BME280;24370;51.986;4.666;2023-09-19T05:03:28;100888.88;;;19.84;60.03
38616;BME280;24370;51.986;4.666;2023-09-19T05:05:54;100895.59;;;19.91;58.98
38616;BME280;24370;51.986;4.666;2023-09-19T05:08:19;100896.84;;;20.38;56.13
38616;BME280;24370;51.986;4.666;2023-09-19T05:10:44;100902.94;;;20.58;55.54
38616;BME280;24370;51.986;4.666;2023-09-19T05:13:10;100901.53;;;20.50;55.90
38616;BME280;24370;51.986;4.666;2023-09-19T05:15:37;100903.06;;;21.07;55.22
38616;BME280;24370;51.986;4.666;2023-09-19T05:18:02;100898.41;;;20.60;56.35
38616;BME280;24370;51.986;4.666;2023-09-19T05:20:28;100904.19;;;20.50;56.28
38616;BME280;24370;51.986;4.666;2023-09-19T05:23:02;100896.94;;;20.72;55.28
38616;BME280;24370;51.986;4.666;2023-09-19T05:25:31;100895.47;;;20.48;56.01
38616;BME280;24370;51.986;4.666;2023-09-19T05:27:58;100901.25;;;20.74;56.29
38616;BME280;24370;51.986;4.666;2023-09-19T05:30:25;100883.34;;;20.25;57.02
38616;BME280;24370;51.986;4.666;2023-09-19T05:32:52;100892.78;;;20.31;56.72
38616;BME280;24370;51.986;4.666;2023-09-19T05:35:18;100880.00;;;20.74;55.30
38616;BME280;24370;51.986;4.666;2023-09-19T05:37:43;100890.50;;;19.48;60.57
38616;BME280;24370;51.986;4.666;2023-09-19T05:40:09;100892.16;;;20.43;58.49
38616;BME280;24370;51.986;4.666;2023-09-19T05:42:38;100892.72;;;19.96;59.40
38616;BME280;24370;51.986;4.666;2023-09-19T05:45:05;100895.75;;;20.42;57.41
38616;BME280;24370;51.986;4.666;2023-09-19T05:47:32;100893.22;;;19.66;60.50
38616;BME280;24370;51.986;4.666;2023-09-19T05:49:57;100897.34;;;20.81;56.25
38616;BME280;24370;51.986;4.666;2023-09-19T05:52:22;100901.56;;;20.68;56.99
38616;BME280;24370;51.986;4.666;2023-09-19T05:54:48;100905.38;;;19.91;60.02
38616;BME280;24370;51.986;4.666;2023-09-19T05:57:14;100903.25;;;20.34;59.33
38616;BME280;24370;51.986;4.666;2023-09-19T05:59:40;100915.00;;;21.49;54.91
38616;BME280;24370;51.986;4.666;2023-09-19T06:02:08;100914.13;;;21.33;56.32
38616;BME280;24370;51.986;4.666;2023-09-19T06:04:35;100916.88;;;20.80;57.06
38616;BME280;24370;51.986;4.666;2023-09-19T06:07:00;100911.69;;;20.42;59.58
38616;BME280;24370;51.986;4.666;2023-09-19T06:09:26;100918.81;;;21.28;55.43
38616;BME280;24370;51.986;4.666;2023-09-19T06:11:53;100927.91;;;20.19;59.33
38616;BME280;24370;51.986;4.666;2023-09-19T06:14:20;100921.81;;;21.22;57.16
38616;BME280;24370;51.986;4.666;2023-09-19T06:16:46;100923.78;;;21.18;56.43
38616;BME280;24370;51.986;4.666;2023-09-19T06:19:12;100924.81;;;20.63;59.76
38616;BME280;24370;51.986;4.666;2023-09-19T06:21:37;100930.97;;;20.63;59.28
38616;BME280;24370;51.986;4.666;2023-09-19T06:24:04;100926.50;;;20.83;59.27
38616;BME280;24370;51.986;4.666;2023-09-19T06:26:29;100914.34;;;20.60;60.22
38616;BME280;24370;51.986;4.666;2023-09-19T06:28:56;100916.91;;;19.90;62.67
38616;BME280;24370;51.986;4.666;2023-09-19T06:31:21;100916.06;;;20.61;61.61
38616;BME280;24370;51.986;4.666;2023-09-19T06:33:48;100922.78;;;20.50;61.07
38616;BME280;24370;51.986;4.666;2023-09-19T06:36:14;100919.88;;;20.55;59.27
38616;BME280;24370;51.986;4.666;2023-09-19T06:38:40;100919.81;;;19.83;62.68
38616;BME280;24370;51.986;4.666;2023-09-19T06:41:06;100924.56;;;20.67;60.60
38616;BME280;24370;51.986;4.666;2023-09-19T06:43:32;100925.41;;;20.87;58.54
38616;BME280;24370;51.986;4.666;2023-09-19T06:45:59;100924.09;;;20.05;60.66
38616;BME280;24370;51.986;4.666;2023-09-19T06:48:25;100926.38;;;20.67;59.12
38616;BME280;24370;51.986;4.666;2023-09-19T06:50:53;100916.59;;;20.69;59.17
38616;BME280;24370;51.986;4.666;2023-09-19T06:53:20;100931.56;;;20.70;57.46
38616;BME280;24370;51.986;4.666;2023-09-19T06:55:45;100926.97;;;20.20;60.37
38616;BME280;24370;51.986;4.666;2023-09-19T06:58:12;100932.28;;;21.25;56.55
38616;BME280;24370;51.986;4.666;2023-09-19T07:00:38;100931.09;;;20.79;57.11
38616;BME280;24370;51.986;4.666;2023-09-19T07:03:07;100929.91;;;21.85;55.21
38616;BME280;24370;51.986;4.666;2023-09-19T07:05:39;100934.75;;;20.94;56.74
38616;BME280;24370;51.986;4.666;2023-09-19T07:08:09;100940.63;;;20.83;57.53
38616;BME280;24370;51.986;4.666;2023-09-19T07:10:37;100935.13;;;21.87;55.33
38616;BME280;24370;51.986;4.666;2023-09-19T07:13:04;100929.47;;;22.09;54.81
38616;BME280;24370;51.986;4.666;2023-09-19T07:15:33;100940.66;;;21.50;55.28
38616;BME280;24370;51.986;4.666;2023-09-19T07:18:04;100937.56;;;21.42;57.24
38616;BME280;24370;51.986;4.666;2023-09-19T07:20:29;100944.66;;;21.08;57.45
38616;BME280;24370;51.986;4.666;2023-09-19T07:22:57;100942.34;;;21.69;56.20
38616;BME280;24370;51.986;4.666;2023-09-19T07:25:25;100934.25;;;22.18;54.77
38616;BME280;24370;51.986;4.666;2023-09-19T07:27:51;100947.16;;;21.11;57.99
38616;BME280;24370;51.986;4.666;2023-09-19T07:30:16;100937.66;;;20.90;58.70
38616;BME280;24370;51.986;4.666;2023-09-19T07:32:42;100945.28;;;21.13;58.07
38616;BME280;24370;51.986;4.666;2023-09-19T07:35:08;100934.28;;;21.04;59.01
38616;BME280;24370;51.986;4.666;2023-09-19T07:37:34;100950.16;;;21.72;56.58
38616;BME280;24370;51.986;4.666;2023-09-19T07:40:00;100939.09;;;22.58;54.06
38616;BME280;24370;51.986;4.666;2023-09-19T07:42:26;100943.28;;;21.34;56.89
38616;BME280;24370;51.986;4.666;2023-09-19T07:44:52;100932.91;;;23.33;52.08
38616;BME280;24370;51.986;4.666;2023-09-19T07:47:19;100946.72;;;22.95;51.71
38616;BME280;24370;51.986;4.666;2023-09-19T07:49:49;100947.84;;;22.30;53.30
38616;BME280;24370;51.986;4.666;2023-09-19T07:52:15;100948.22;;;22.84;52.09
38616;BME280;24370;51.986;4.666;2023-09-19T07:54:41;100944.69;;;23.43;52.52
38616;BME280;24370;51.986;4.666;2023-09-19T07:57:06;100944.06;;;22.34;53.56
38616;BME280;24370;51.986;4.666;2023-09-19T07:59:32;100934.16;;;22.97;51.80
38616;BME280;24370;51.986;4.666;2023-09-19T08:01:57;100937.19;;;22.30;52.48
38616;BME280;24370;51.986;4.666;2023-09-19T08:04:23;100946.59;;;22.51;53.45
38616;BME280;24370;51.986;4.666;2023-09-19T08:06:51;100941.97;;;22.39;53.12
38616;BME280;24370;51.986;4.666;2023-09-19T08:09:17;100938.59;;;22.05;53.92
38616;BME280;24370;51.986;4.666;2023-09-19T08:11:48;100937.97;;;22.00;53.87
38616;BME280;24370;51.986;4.666;2023-09-19T08:14:16;100928.72;;;22.53;52.11
38616;BME280;24370;51.986;4.666;2023-09-19T08:16:41;100932.88;;;23.62;50.25
38616;BME280;24370;51.986;4.666;2023-09-19T08:19:09;100929.25;;;22.44;52.69
38616;BME280;24370;51.986;4.666;2023-09-19T08:21:35;100928.69;;;22.23;54.15
38616;BME280;24370;51.986;4.666;2023-09-19T08:24:01;100929.63;;;23.57;50.45
38616;BME280;24370;51.986;4.666;2023-09-19T08:26:29;100923.84;;;23.21;51.69
38616;BME280;24370;51.986;4.666;2023-09-19T08:28:56;100925.03;;;23.73;50.30
38616;BME280;24370;51.986;4.666;2023-09-19T08:31:21;100925.59;;;23.93;50.93
38616;BME280;24370;51.986;4.666;2023-09-19T08:33:48;100919.69;;;22.86;51.55
38616;BME280;24370;51.986;4.666;2023-09-19T08:36:14;100938.22;;;22.11;54.28
38616;BME280;24370;51.986;4.666;2023-09-19T08:38:40;100928.19;;;22.63;53.34
38616;BME280;24370;51.986;4.666;2023-09-19T08:41:07;100928.13;;;22.48;53.90
38616;BME280;24370;51.986;4.666;2023-09-19T08:43:34;100931.50;;;22.36;53.73
38616;BME280;24370;51.986;4.666;2023-09-19T08:46:14;100917.25;;;23.41;51.17
38616;BME280;24370;51.986;4.666;2023-09-19T08:49:15;100927.88;;;22.98;51.42
38616;BME280;24370;51.986;4.666;2023-09-19T08:51:42;100918.53;;;23.05;52.29
38616;BME280;24370;51.986;4.666;2023-09-19T08:54:32;100934.41;;;21.51;55.33
38616;BME280;24370;51.986;4.666;2023-09-19T08:57:00;100911.91;;;23.55;50.57
38616;BME280;24370;51.986;4.666;2023-09-19T08:59:33;100934.88;;;21.60;55.08
38616;BME280;24370;51.986;4.666;2023-09-19T09:02:00;100917.16;;;23.43;52.07
38616;BME280;24370;51.986;4.666;2023-09-19T09:04:26;100923.72;;;23.66;50.51
38616;BME280;24370;51.986;4.666;2023-09-19T09:06:53;100924.84;;;21.97;55.49
38616;BME280;24370;51.986;4.666;2023-09-19T09:09:20;100927.56;;;23.33;51.36
38616;BME280;24370;51.986;4.666;2023-09-19T09:11:48;100922.84;;;22.93;52.25
38616;BME280;24370;51.986;4.666;2023-09-19T09:14:13;100932.41;;;22.81;52.85
38616;BME280;24370;51.986;4.666;2023-09-19T09:16:39;100924.88;;;23.47;51.69
38616;BME280;24370;51.986;4.666;2023-09-19T09:19:04;100922.66;;;22.19;54.47
38616;BME280;24370;51.986;4.666;2023-09-19T09:21:30;100922.59;;;22.82;53.92
38616;BME280;24370;51.986;4.666;2023-09-19T09:24:29;100917.25;;;22.37;52.94
38616;BME280;24370;51.986;4.666;2023-09-19T09:26:59;100926.97;;;23.13;52.23
38616;BME280;24370;51.986;4.666;2023-09-19T09:29:43;100927.50;;;23.76;51.09
38616;BME280;24370;51.986;4.666;2023-09-19T09:32:22;100902.47;;;24.33;49.65
38616;BME280;24370;51.986;4.666;2023-09-19T09:34:53;100929.53;;;23.15;51.20
38616;BME280;24370;51.986;4.666;2023-09-19T09:37:20;100916.34;;;22.52;53.81
38616;BME280;24370;51.986;4.666;2023-09-19T09:39:50;100921.69;;;22.52;55.04
38616;BME280;24370;51.986;4.666;2023-09-19T09:42:31;100926.59;;;23.19;52.19
38616;BME280;24370;51.986;4.666;2023-09-19T09:47:53;100921.25;;;23.48;51.74
38616;BME280;24370;51.986;4.666;2023-09-19T09:50:33;100917.00;;;23.01;52.88
38616;BME280;24370;51.986;4.666;2023-09-19T09:53:25;100919.53;;;23.47;51.47
38616;BME280;24370;51.986;4.666;2023-09-19T09:56:01;100910.03;;;23.29;52.88
38616;BME280;24370;51.986;4.666;2023-09-19T09:58:30;100901.53;;;24.07;51.04
38616;BME280;24370;51.986;4.666;2023-09-19T10:00:57;100904.66;;;24.54;49.09
38616;BME280;24370;51.986;4.666;2023-09-19T10:03:37;100903.91;;;24.25;49.25
38616;BME280;24370;51.986;4.666;2023-09-19T10:06:13;100894.00;;;23.58;50.27
38616;BME280;24370;51.986;4.666;2023-09-19T10:09:08;100903.75;;;24.00;49.92
38616;BME280;24370;51.986;4.666;2023-09-19T10:11:48;100888.91;;;24.89;48.35
38616;BME280;24370;51.986;4.666;2023-09-19T10:14:27;100894.91;;;24.40;49.09
38616;BME280;24370;51.986;4.666;2023-09-19T10:16:58;100905.81;;;23.39;50.66
38616;BME280;24370;51.986;4.666;2023-09-19T10:19:37;100893.34;;;23.96;49.55
38616;BME280;24370;51.986;4.666;2023-09-19T10:22:04;100885.75;;;23.90;48.96
38616;BME280;24370;51.986;4.666;2023-09-19T10:24:33;100884.41;;;24.10;48.47
38616;BME280;24370;51.986;4.666;2023-09-19T10:27:01;100875.84;;;24.72;48.53
38616;BME280;24370;51.986;4.666;2023-09-19T10:29:32;100869.00;;;24.94;47.34
38616;BME280;24370;51.986;4.666;2023-09-19T10:31:59;100874.13;;;24.71;47.78
38616;BME280;24370;51.986;4.666;2023-09-19T10:34:26;100857.41;;;24.54;47.88
38616;BME280;24370;51.986;4.666;2023-09-19T10:36:52;100873.63;;;23.84;50.63
38616;BME280;24370;51.986;4.666;2023-09-19T10:39:19;100869.03;;;23.59;49.95
38616;BME280;24370;51.986;4.666;2023-09-19T10:41:53;100871.03;;;23.97;49.55
38616;BME280;24370;51.986;4.666;2023-09-19T10:44:25;100863.22;;;24.74;47.51
38616;BME280;24370;51.986;4.666;2023-09-19T10:46:54;100848.66;;;24.52;48.24
38616;BME280;24370;51.986;4.666;2023-09-19T10:49:21;100859.31;;;23.99;48.57
38616;BME280;24370;51.986;4.666;2023-09-19T10:51:49;100869.63;;;24.84;46.91
38616;BME280;24370;51.986;4.666;2023-09-19T10:54:18;100852.16;;;24.00;48.94
38616;BME280;24370;51.986;4.666;2023-09-19T10:56:48;100847.41;;;24.97;47.20
38616;BME280;24370;51.986;4.666;2023-09-19T10:59:20;100846.28;;;25.38;45.79
38616;BME280;24370;51.986;4.666;2023-09-19T11:01:53;100849.75;;;24.88;46.96
38616;BME280;24370;51.986;4.666;2023-09-19T11:04:29;100847.41;;;24.71;47.38
38616;BME280;24370;51.986;4.666;2023-09-19T11:07:05;100849.63;;;24.11;48.31
38616;BME280;24370;51.986;4.666;2023-09-19T11:09:50;100854.22;;;25.14;46.83
38616;BME280;24370;51.986;4.666;2023-09-19T11:14:58;100858.00;;;24.32;47.66
38616;BME280;24370;51.986;4.666;2023-09-19T11:17:34;100848.06;;;24.21;46.92
38616;BME280;24370;51.986;4.666;2023-09-19T11:30:41;100832.31;;;23.35;49.61
38616;BME280;24370;51.986;4.666;2023-09-19T11:36:16;100842.09;;;24.44;47.29
38616;BME280;24370;51.986;4.666;2023-09-19T11:46:32;100827.44;;;24.24;47.81
38616;BME280;24370;51.986;4.666;2023-09-19T11:49:09;100827.47;;;23.69;49.14
38616;BME280;24370;51.986;4.666;2023-09-19T11:51:55;100825.16;;;24.04;48.53
38616;BME280;24370;51.986;4.666;2023-09-19T11:54:20;100832.63;;;24.12;48.30
38616;BME280;24370;51.986;4.666;2023-09-19T11:56:56;100835.25;;;24.27;48.06
38616;BME280;24370;51.986;4.666;2023-09-19T11:59:23;100830.34;;;24.59;47.18
38616;BME280;24370;51.986;4.666;2023-09-19T12:01:51;100833.66;;;25.27;46.83
38616;BME280;24370;51.986;4.666;2023-09-19T12:04:44;100838.16;;;24.49;47.94
38616;BME280;24370;51.986;4.666;2023-09-19T12:07:11;100832.31;;;24.70;47.61
38616;BME280;24370;51.986;4.666;2023-09-19T12:09:41;100848.88;;;23.11;50.81
38616;BME280;24370;51.986;4.666;2023-09-19T12:12:22;100840.28;;;25.21;46.75
38616;BME280;24370;51.986;4.666;2023-09-19T12:14:51;100838.09;;;24.11;48.83
38616;BME280;24370;51.986;4.666;2023-09-19T12:17:17;100847.19;;;24.87;48.23
38616;BME280;24370;51.986;4.666;2023-09-19T12:19:49;100831.97;;;25.87;46.11
38616;BME280;24370;51.986;4.666;2023-09-19T12:22:16;100847.19;;;24.87;47.10
38616;BME280;24370;51.986;4.666;2023-09-19T12:24:43;100832.16;;;24.33;48.39
38616;BME280;24370;51.986;4.666;2023-09-19T12:27:10;100839.34;;;24.05;49.29
38616;BME280;24370;51.986;4.666;2023-09-19T12:29:47;100823.81;;;24.25;49.53
38616;BME280;24370;51.986;4.666;2023-09-19T12:32:36;100830.28;;;24.99;47.41
38616;BME280;24370;51.986;4.666;2023-09-19T12:35:06;100840.09;;;24.47;49.23
38616;BME280;24370;51.986;4.666;2023-09-19T12:37:36;100838.50;;;25.09;47.45
38616;BME280;24370;51.986;4.666;2023-09-19T12:40:07;100847.50;;;24.16;49.82
38616;BME280;24370;51.986;4.666;2023-09-19T12:42:54;100841.41;;;24.80;48.46
38616;BME280;24370;51.986;4.666;2023-09-19T12:45:28;100836.13;;;25.17;46.98
38616;BME280;24370;51.986;4.666;2023-09-19T12:48:21;100828.25;;;25.53;46.95
38616;BME280;24370;51.986;4.666;2023-09-19T12:51:07;100829.91;;;25.67;47.46
38616;BME280;24370;51.986;4.666;2023-09-19T12:56:07;100846.19;;;25.27;47.75
38616;BME280;24370;51.986;4.666;2023-09-19T13:01:25;100824.25;;;25.83;46.46
38616;BME280;24370;51.986;4.666;2023-09-19T13:04:18;100835.38;;;25.15;48.20
38616;BME280;24370;51.986;4.666;2023-09-19T13:06:48;100818.34;;;24.66;49.13
38616;BME280;24370;51.986;4.666;2023-09-19T13:09:15;100830.78;;;24.00;50.56
38616;BME280;24370;51.986;4.666;2023-09-19T13:11:41;100829.72;;;24.55;49.73
38616;BME280;24370;51.986;4.666;2023-09-19T13:14:19;100822.28;;;24.20;50.04
38616;BME280;24370;51.986;4.666;2023-09-19T13:17:05;100822.63;;;25.69;46.37
38616;BME280;24370;51.986;4.666;2023-09-19T13:19:51;100823.66;;;25.05;48.48
38616;BME280;24370;51.986;4.666;2023-09-19T13:25:09;100831.91;;;24.10;49.55
38616;BME280;24370;51.986;4.666;2023-09-19T13:27:42;100818.91;;;24.31;49.09
38616;BME280;24370;51.986;4.666;2023-09-19T13:30:10;100818.94;;;24.96;47.63
38616;BME280;24370;51.986;4.666;2023-09-19T13:32:36;100808.03;;;24.99;47.78
38616;BME280;24370;51.986;4.666;2023-09-19T13:35:02;100813.06;;;24.90;47.50
38616;BME280;24370;51.986;4.666;2023-09-19T13:37:30;100813.16;;;24.50;47.95
38616;BME280;24370;51.986;4.666;2023-09-19T13:39:56;100812.28;;;24.37;48.40
38616;BME280;24370;51.986;4.666;2023-09-19T13:42:24;100818.00;;;24.18;48.89
38616;BME280;24370;51.986;4.666;2023-09-19T13:44:53;100818.09;;;24.56;47.80